National Weather Service Raw Text Product

Displaying AFOS PIL: TAFFOD Received: 2018-02-09 11:34 UTC


998 
FTUS43 KDMX 091134
TAFFOD
TAF
KFOD 091134Z 0912/1012 02012G18KT P6SM SCT008 OVC060
     FM092200 02008KT P6SM BKN090
     FM100100 36007KT P6SM SCT040 OVC070=